sensor_id;sensor_type;location;lat;lon;timestamp;P1;durP1;ratioP1;P2;durP2;ratioP2
11907;SDS011;6014;47.690;9.130;2022-12-10T00:00:49;11.43;;;7.67;;
11907;SDS011;6014;47.690;9.130;2022-12-10T00:03:26;11.73;;;7.73;;
11907;SDS011;6014;47.690;9.130;2022-12-10T00:05:59;12.73;;;8.43;;
11907;SDS011;6014;47.690;9.130;2022-12-10T00:08:34;13.47;;;8.90;;
11907;SDS011;6014;47.690;9.130;2022-12-10T00:11:05;13.17;;;7.80;;
11907;SDS011;6014;47.690;9.130;2022-12-10T00:13:37;12.20;;;7.77;;
11907;SDS011;6014;47.690;9.130;2022-12-10T00:16:19;12.33;;;7.60;;
11907;SDS011;6014;47.690;9.130;2022-12-10T00:18:56;10.03;;;7.27;;
11907;SDS011;6014;47.690;9.130;2022-12-10T00:21:27;10.60;;;7.27;;
11907;SDS011;6014;47.690;9.130;2022-12-10T00:23:58;11.50;;;7.17;;
11907;SDS011;6014;47.690;9.130;2022-12-10T00:26:28;12.43;;;8.27;;
11907;SDS011;6014;47.690;9.130;2022-12-10T00:28:59;12.17;;;7.93;;
11907;SDS011;6014;47.690;9.130;2022-12-10T00:31:32;13.30;;;7.57;;
11907;SDS011;6014;47.690;9.130;2022-12-10T00:34:06;10.43;;;7.87;;
11907;SDS011;6014;47.690;9.130;2022-12-10T00:36:38;11.77;;;7.40;;
11907;SDS011;6014;47.690;9.130;2022-12-10T00:39:11;11.73;;;7.70;;
11907;SDS011;6014;47.690;9.130;2022-12-10T00:41:43;13.20;;;7.50;;
11907;SDS011;6014;47.690;9.130;2022-12-10T00:44:13;12.40;;;7.93;;
11907;SDS011;6014;47.690;9.130;2022-12-10T00:46:45;12.63;;;8.13;;
11907;SDS011;6014;47.690;9.130;2022-12-10T00:49:14;11.07;;;7.33;;
11907;SDS011;6014;47.690;9.130;2022-12-10T00:51:43;14.60;;;8.33;;
11907;SDS011;6014;47.690;9.130;2022-12-10T00:54:12;13.03;;;8.63;;
11907;SDS011;6014;47.690;9.130;2022-12-10T00:56:49;12.70;;;7.20;;
11907;SDS011;6014;47.690;9.130;2022-12-10T00:59:17;11.00;;;7.23;;
11907;SDS011;6014;47.690;9.130;2022-12-10T01:01:48;13.33;;;7.90;;
11907;SDS011;6014;47.690;9.130;2022-12-10T01:04:17;11.93;;;7.93;;
11907;SDS011;6014;47.690;9.130;2022-12-10T01:06:47;11.97;;;7.40;;
11907;SDS011;6014;47.690;9.130;2022-12-10T01:09:18;11.10;;;7.00;;
11907;SDS011;6014;47.690;9.130;2022-12-10T01:11:49;11.27;;;8.03;;
11907;SDS011;6014;47.690;9.130;2022-12-10T01:14:20;10.43;;;7.00;;
11907;SDS011;6014;47.690;9.130;2022-12-10T01:16:54;15.13;;;8.87;;
11907;SDS011;6014;47.690;9.130;2022-12-10T01:19:28;11.97;;;7.77;;
11907;SDS011;6014;47.690;9.130;2022-12-10T01:21:59;12.97;;;8.10;;
11907;SDS011;6014;47.690;9.130;2022-12-10T01:24:28;12.70;;;7.90;;
11907;SDS011;6014;47.690;9.130;2022-12-10T01:26:57;12.87;;;8.33;;
11907;SDS011;6014;47.690;9.130;2022-12-10T01:29:26;11.07;;;7.33;;
11907;SDS011;6014;47.690;9.130;2022-12-10T01:31:57;13.50;;;8.53;;
11907;SDS011;6014;47.690;9.130;2022-12-10T01:34:26;13.23;;;7.97;;
11907;SDS011;6014;47.690;9.130;2022-12-10T01:36:54;14.13;;;8.10;;
11907;SDS011;6014;47.690;9.130;2022-12-10T01:39:23;13.10;;;8.33;;
11907;SDS011;6014;47.690;9.130;2022-12-10T01:41:53;12.10;;;7.47;;
11907;SDS011;6014;47.690;9.130;2022-12-10T01:47:35;11.93;;;7.13;;
11907;SDS011;6014;47.690;9.130;2022-12-10T01:50:05;13.37;;;8.00;;
11907;SDS011;6014;47.690;9.130;2022-12-10T01:52:36;12.93;;;8.10;;
11907;SDS011;6014;47.690;9.130;2022-12-10T01:55:35;13.20;;;8.33;;
11907;SDS011;6014;47.690;9.130;2022-12-10T01:58:20;12.47;;;7.97;;
11907;SDS011;6014;47.690;9.130;2022-12-10T02:00:55;15.90;;;8.47;;
11907;SDS011;6014;47.690;9.130;2022-12-10T02:03:37;14.90;;;9.47;;
11907;SDS011;6014;47.690;9.130;2022-12-10T02:06:23;13.23;;;8.90;;
11907;SDS011;6014;47.690;9.130;2022-12-10T02:09:02;14.37;;;8.90;;
11907;SDS011;6014;47.690;9.130;2022-12-10T02:11:40;14.07;;;7.97;;
11907;SDS011;6014;47.690;9.130;2022-12-10T02:14:14;14.20;;;8.90;;
11907;SDS011;6014;47.690;9.130;2022-12-10T02:16:50;13.67;;;8.93;;
11907;SDS011;6014;47.690;9.130;2022-12-10T02:19:29;12.90;;;8.57;;
11907;SDS011;6014;47.690;9.130;2022-12-10T02:22:21;19.13;;;9.27;;
11907;SDS011;6014;47.690;9.130;2022-12-10T02:24:52;14.83;;;9.40;;
11907;SDS011;6014;47.690;9.130;2022-12-10T02:27:26;14.63;;;9.33;;
11907;SDS011;6014;47.690;9.130;2022-12-10T02:30:01;14.60;;;8.93;;
11907;SDS011;6014;47.690;9.130;2022-12-10T02:32:31;12.30;;;8.63;;
11907;SDS011;6014;47.690;9.130;2022-12-10T02:35:08;13.57;;;8.97;;
11907;SDS011;6014;47.690;9.130;2022-12-10T02:37:43;12.43;;;7.53;;
11907;SDS011;6014;47.690;9.130;2022-12-10T02:40:18;13.70;;;8.43;;
11907;SDS011;6014;47.690;9.130;2022-12-10T02:42:51;14.00;;;8.73;;
11907;SDS011;6014;47.690;9.130;2022-12-10T02:45:22;13.43;;;8.53;;
11907;SDS011;6014;47.690;9.130;2022-12-10T02:47:54;13.87;;;9.27;;
11907;SDS011;6014;47.690;9.130;2022-12-10T02:50:25;14.33;;;8.60;;
11907;SDS011;6014;47.690;9.130;2022-12-10T02:52:54;12.90;;;8.70;;
11907;SDS011;6014;47.690;9.130;2022-12-10T02:55:22;15.57;;;9.53;;
11907;SDS011;6014;47.690;9.130;2022-12-10T02:57:55;13.87;;;8.40;;
11907;SDS011;6014;47.690;9.130;2022-12-10T03:00:37;13.77;;;8.77;;
11907;SDS011;6014;47.690;9.130;2022-12-10T03:03:23;14.93;;;8.80;;
11907;SDS011;6014;47.690;9.130;2022-12-10T03:06:03;12.47;;;8.03;;
11907;SDS011;6014;47.690;9.130;2022-12-10T03:08:39;12.70;;;8.33;;
11907;SDS011;6014;47.690;9.130;2022-12-10T03:11:15;15.90;;;9.30;;
11907;SDS011;6014;47.690;9.130;2022-12-10T03:13:47;14.53;;;9.00;;
11907;SDS011;6014;47.690;9.130;2022-12-10T03:16:24;14.53;;;8.00;;
11907;SDS011;6014;47.690;9.130;2022-12-10T03:18:57;14.93;;;8.93;;
11907;SDS011;6014;47.690;9.130;2022-12-10T03:21:31;16.13;;;9.40;;
11907;SDS011;6014;47.690;9.130;2022-12-10T03:24:10;15.10;;;9.17;;
11907;SDS011;6014;47.690;9.130;2022-12-10T03:26:39;14.90;;;8.53;;
11907;SDS011;6014;47.690;9.130;2022-12-10T03:29:10;15.63;;;9.03;;
11907;SDS011;6014;47.690;9.130;2022-12-10T03:31:44;14.97;;;8.87;;
11907;SDS011;6014;47.690;9.130;2022-12-10T03:34:13;13.37;;;8.60;;
11907;SDS011;6014;47.690;9.130;2022-12-10T03:36:42;13.30;;;8.73;;
11907;SDS011;6014;47.690;9.130;2022-12-10T03:39:12;18.47;;;10.50;;
11907;SDS011;6014;47.690;9.130;2022-12-10T03:41:42;17.13;;;10.23;;
11907;SDS011;6014;47.690;9.130;2022-12-10T03:44:17;17.43;;;9.83;;
11907;SDS011;6014;47.690;9.130;2022-12-10T03:46:57;14.93;;;9.10;;
11907;SDS011;6014;47.690;9.130;2022-12-10T03:49:26;16.37;;;9.13;;
11907;SDS011;6014;47.690;9.130;2022-12-10T03:51:54;17.67;;;9.47;;
11907;SDS011;6014;47.690;9.130;2022-12-10T03:54:23;15.27;;;9.77;;
11907;SDS011;6014;47.690;9.130;2022-12-10T03:56:52;15.07;;;9.37;;
11907;SDS011;6014;47.690;9.130;2022-12-10T03:59:20;13.97;;;8.50;;
11907;SDS011;6014;47.690;9.130;2022-12-10T04:01:49;16.17;;;9.57;;
11907;SDS011;6014;47.690;9.130;2022-12-10T04:04:22;15.67;;;9.83;;
11907;SDS011;6014;47.690;9.130;2022-12-10T04:06:50;17.27;;;9.63;;
11907;SDS011;6014;47.690;9.130;2022-12-10T04:09:19;15.17;;;9.33;;
11907;SDS011;6014;47.690;9.130;2022-12-10T04:11:48;14.27;;;8.87;;
11907;SDS011;6014;47.690;9.130;2022-12-10T04:14:18;15.27;;;9.23;;
11907;SDS011;6014;47.690;9.130;2022-12-10T04:17:04;17.33;;;10.00;;
11907;SDS011;6014;47.690;9.130;2022-12-10T04:19:34;14.50;;;8.93;;
11907;SDS011;6014;47.690;9.130;2022-12-10T04:22:03;16.57;;;10.23;;
11907;SDS011;6014;47.690;9.130;2022-12-10T04:24:50;17.10;;;9.40;;
11907;SDS011;6014;47.690;9.130;2022-12-10T04:27:47;16.77;;;9.67;;
11907;SDS011;6014;47.690;9.130;2022-12-10T04:30:17;15.00;;;9.47;;
11907;SDS011;6014;47.690;9.130;2022-12-10T04:32:46;13.07;;;8.67;;
11907;SDS011;6014;47.690;9.130;2022-12-10T04:35:16;18.23;;;9.33;;
11907;SDS011;6014;47.690;9.130;2022-12-10T04:37:45;15.67;;;8.63;;
11907;SDS011;6014;47.690;9.130;2022-12-10T04:40:13;14.23;;;8.43;;
11907;SDS011;6014;47.690;9.130;2022-12-10T04:42:42;17.60;;;10.33;;
11907;SDS011;6014;47.690;9.130;2022-12-10T04:45:11;15.17;;;9.23;;
11907;SDS011;6014;47.690;9.130;2022-12-10T04:47:39;16.27;;;9.17;;
11907;SDS011;6014;47.690;9.130;2022-12-10T04:50:08;18.23;;;9.50;;
11907;SDS011;6014;47.690;9.130;2022-12-10T04:52:38;16.33;;;9.77;;
11907;SDS011;6014;47.690;9.130;2022-12-10T04:55:07;15.43;;;9.37;;
11907;SDS011;6014;47.690;9.130;2022-12-10T04:57:36;15.23;;;9.40;;
11907;SDS011;6014;47.690;9.130;2022-12-10T05:00:05;15.87;;;9.23;;
11907;SDS011;6014;47.690;9.130;2022-12-10T05:02:36;16.63;;;9.57;;
11907;SDS011;6014;47.690;9.130;2022-12-10T05:05:05;13.77;;;9.40;;
11907;SDS011;6014;47.690;9.130;2022-12-10T05:07:34;14.67;;;9.13;;
11907;SDS011;6014;47.690;9.130;2022-12-10T05:10:05;12.70;;;8.10;;
11907;SDS011;6014;47.690;9.130;2022-12-10T05:12:35;13.00;;;8.77;;
11907;SDS011;6014;47.690;9.130;2022-12-10T05:15:05;14.27;;;8.57;;
11907;SDS011;6014;47.690;9.130;2022-12-10T05:17:34;15.43;;;9.47;;
11907;SDS011;6014;47.690;9.130;2022-12-10T05:20:03;12.70;;;8.20;;
11907;SDS011;6014;47.690;9.130;2022-12-10T05:22:33;12.80;;;7.87;;
11907;SDS011;6014;47.690;9.130;2022-12-10T05:25:20;15.13;;;9.07;;
11907;SDS011;6014;47.690;9.130;2022-12-10T05:27:49;13.10;;;8.13;;
11907;SDS011;6014;47.690;9.130;2022-12-10T05:30:17;13.13;;;8.03;;
11907;SDS011;6014;47.690;9.130;2022-12-10T05:32:46;15.63;;;9.33;;
11907;SDS011;6014;47.690;9.130;2022-12-10T05:35:14;12.10;;;8.37;;
11907;SDS011;6014;47.690;9.130;2022-12-10T05:37:43;13.73;;;9.23;;
11907;SDS011;6014;47.690;9.130;2022-12-10T05:40:11;13.00;;;8.63;;
11907;SDS011;6014;47.690;9.130;2022-12-10T05:42:41;15.33;;;9.50;;
11907;SDS011;6014;47.690;9.130;2022-12-10T05:45:10;15.13;;;9.70;;
11907;SDS011;6014;47.690;9.130;2022-12-10T05:47:38;15.90;;;9.47;;
11907;SDS011;6014;47.690;9.130;2022-12-10T05:50:07;15.77;;;8.60;;
11907;SDS011;6014;47.690;9.130;2022-12-10T05:52:37;16.43;;;9.40;;
11907;SDS011;6014;47.690;9.130;2022-12-10T05:55:06;17.60;;;10.13;;
11907;SDS011;6014;47.690;9.130;2022-12-10T05:57:35;17.33;;;10.27;;
11907;SDS011;6014;47.690;9.130;2022-12-10T06:00:06;18.87;;;9.70;;
11907;SDS011;6014;47.690;9.130;2022-12-10T06:02:36;15.53;;;9.83;;
11907;SDS011;6014;47.690;9.130;2022-12-10T06:05:04;15.83;;;9.10;;
11907;SDS011;6014;47.690;9.130;2022-12-10T06:07:33;18.10;;;9.20;;
11907;SDS011;6014;47.690;9.130;2022-12-10T06:10:02;18.13;;;10.10;;
11907;SDS011;6014;47.690;9.130;2022-12-10T06:12:32;17.80;;;10.40;;
11907;SDS011;6014;47.690;9.130;2022-12-10T06:15:00;15.70;;;9.97;;
11907;SDS011;6014;47.690;9.130;2022-12-10T06:17:30;17.70;;;9.50;;
11907;SDS011;6014;47.690;9.130;2022-12-10T06:19:59;17.03;;;9.90;;
11907;SDS011;6014;47.690;9.130;2022-12-10T06:22:27;14.33;;;9.27;;
11907;SDS011;6014;47.690;9.130;2022-12-10T06:24:56;17.20;;;9.57;;
11907;SDS011;6014;47.690;9.130;2022-12-10T06:27:24;18.40;;;10.23;;
11907;SDS011;6014;47.690;9.130;2022-12-10T06:29:52;15.93;;;9.13;;
11907;SDS011;6014;47.690;9.130;2022-12-10T06:32:21;16.93;;;10.87;;
11907;SDS011;6014;47.690;9.130;2022-12-10T06:34:50;15.57;;;9.30;;
11907;SDS011;6014;47.690;9.130;2022-12-10T06:37:19;18.93;;;10.40;;
11907;SDS011;6014;47.690;9.130;2022-12-10T06:39:49;18.30;;;9.93;;
11907;SDS011;6014;47.690;9.130;2022-12-10T06:42:18;17.03;;;10.83;;
11907;SDS011;6014;47.690;9.130;2022-12-10T06:44:47;18.40;;;9.97;;
11907;SDS011;6014;47.690;9.130;2022-12-10T06:47:15;18.30;;;10.10;;
11907;SDS011;6014;47.690;9.130;2022-12-10T06:49:44;17.50;;;9.57;;
11907;SDS011;6014;47.690;9.130;2022-12-10T06:52:13;16.53;;;10.50;;
11907;SDS011;6014;47.690;9.130;2022-12-10T06:54:42;15.20;;;9.70;;
11907;SDS011;6014;47.690;9.130;2022-12-10T06:57:10;18.57;;;10.47;;
11907;SDS011;6014;47.690;9.130;2022-12-10T06:59:39;16.67;;;10.00;;
11907;SDS011;6014;47.690;9.130;2022-12-10T07:02:07;17.40;;;10.33;;
11907;SDS011;6014;47.690;9.130;2022-12-10T07:04:36;15.73;;;9.07;;
11907;SDS011;6014;47.690;9.130;2022-12-10T07:07:05;15.47;;;9.70;;
11907;SDS011;6014;47.690;9.130;2022-12-10T07:09:36;16.93;;;9.20;;
11907;SDS011;6014;47.690;9.130;2022-12-10T07:12:05;15.10;;;8.70;;
11907;SDS011;6014;47.690;9.130;2022-12-10T07:14:33;17.17;;;9.87;;
11907;SDS011;6014;47.690;9.130;2022-12-10T07:17:02;18.90;;;11.83;;
11907;SDS011;6014;47.690;9.130;2022-12-10T07:19:31;18.93;;;12.00;;
11907;SDS011;6014;47.690;9.130;2022-12-10T07:22:00;15.97;;;9.87;;
11907;SDS011;6014;47.690;9.130;2022-12-10T07:24:28;16.67;;;10.40;;
11907;SDS011;6014;47.690;9.130;2022-12-10T07:26:58;18.47;;;10.57;;
11907;SDS011;6014;47.690;9.130;2022-12-10T07:29:26;19.20;;;11.10;;
11907;SDS011;6014;47.690;9.130;2022-12-10T07:31:55;19.33;;;10.27;;
11907;SDS011;6014;47.690;9.130;2022-12-10T07:34:23;17.50;;;10.17;;
11907;SDS011;6014;47.690;9.130;2022-12-10T07:36:51;14.50;;;9.10;;
11907;SDS011;6014;47.690;9.130;2022-12-10T07:39:21;18.67;;;9.67;;
11907;SDS011;6014;47.690;9.130;2022-12-10T07:41:49;16.33;;;9.30;;
11907;SDS011;6014;47.690;9.130;2022-12-10T07:44:21;18.03;;;9.70;;
11907;SDS011;6014;47.690;9.130;2022-12-10T07:46:53;17.13;;;10.17;;
11907;SDS011;6014;47.690;9.130;2022-12-10T07:49:22;16.07;;;9.73;;
11907;SDS011;6014;47.690;9.130;2022-12-10T07:51:50;15.53;;;9.30;;
11907;SDS011;6014;47.690;9.130;2022-12-10T07:54:19;16.30;;;9.60;;
11907;SDS011;6014;47.690;9.130;2022-12-10T07:56:47;15.10;;;9.63;;
11907;SDS011;6014;47.690;9.130;2022-12-10T07:59:16;18.10;;;10.90;;
11907;SDS011;6014;47.690;9.130;2022-12-10T08:01:46;16.23;;;9.37;;
11907;SDS011;6014;47.690;9.130;2022-12-10T08:04:15;20.60;;;10.30;;
11907;SDS011;6014;47.690;9.130;2022-12-10T08:06:43;15.57;;;9.30;;
11907;SDS011;6014;47.690;9.130;2022-12-10T08:09:13;19.00;;;10.87;;
11907;SDS011;6014;47.690;9.130;2022-12-10T08:11:42;19.73;;;11.63;;
11907;SDS011;6014;47.690;9.130;2022-12-10T08:14:11;19.47;;;11.50;;
11907;SDS011;6014;47.690;9.130;2022-12-10T08:16:39;23.57;;;12.10;;
11907;SDS011;6014;47.690;9.130;2022-12-10T08:19:09;17.30;;;9.73;;
11907;SDS011;6014;47.690;9.130;2022-12-10T08:21:44;15.93;;;9.50;;
11907;SDS011;6014;47.690;9.130;2022-12-10T08:24:13;16.57;;;9.53;;
11907;SDS011;6014;47.690;9.130;2022-12-10T08:26:41;14.73;;;8.67;;
11907;SDS011;6014;47.690;9.130;2022-12-10T08:29:09;17.47;;;10.30;;
11907;SDS011;6014;47.690;9.130;2022-12-10T08:31:38;16.67;;;9.23;;
11907;SDS011;6014;47.690;9.130;2022-12-10T08:34:12;17.23;;;9.50;;
11907;SDS011;6014;47.690;9.130;2022-12-10T08:36:43;17.67;;;10.03;;
11907;SDS011;6014;47.690;9.130;2022-12-10T08:39:12;18.13;;;10.47;;
11907;SDS011;6014;47.690;9.130;2022-12-10T08:41:43;18.07;;;10.50;;
11907;SDS011;6014;47.690;9.130;2022-12-10T08:44:12;19.80;;;10.43;;
11907;SDS011;6014;47.690;9.130;2022-12-10T08:46:41;24.47;;;12.83;;
11907;SDS011;6014;47.690;9.130;2022-12-10T08:49:09;21.37;;;12.33;;
11907;SDS011;6014;47.690;9.130;2022-12-10T08:51:39;24.87;;;14.23;;
11907;SDS011;6014;47.690;9.130;2022-12-10T08:54:08;20.70;;;11.83;;
11907;SDS011;6014;47.690;9.130;2022-12-10T08:56:36;21.00;;;11.43;;
11907;SDS011;6014;47.690;9.130;2022-12-10T08:59:06;19.50;;;11.50;;
11907;SDS011;6014;47.690;9.130;2022-12-10T09:01:34;26.03;;;14.07;;
11907;SDS011;6014;47.690;9.130;2022-12-10T09:04:03;19.27;;;10.57;;
11907;SDS011;6014;47.690;9.130;2022-12-10T09:06:33;20.43;;;11.20;;
11907;SDS011;6014;47.690;9.130;2022-12-10T09:09:01;23.93;;;12.30;;
11907;SDS011;6014;47.690;9.130;2022-12-10T09:11:31;21.63;;;11.30;;
11907;SDS011;6014;47.690;9.130;2022-12-10T09:14:01;20.50;;;11.17;;
11907;SDS011;6014;47.690;9.130;2022-12-10T09:16:31;15.53;;;9.60;;
11907;SDS011;6014;47.690;9.130;2022-12-10T09:19:02;17.60;;;9.93;;
11907;SDS011;6014;47.690;9.130;2022-12-10T09:21:32;20.03;;;10.90;;
11907;SDS011;6014;47.690;9.130;2022-12-10T09:24:01;21.20;;;12.40;;
11907;SDS011;6014;47.690;9.130;2022-12-10T09:26:29;20.67;;;11.77;;
11907;SDS011;6014;47.690;9.130;2022-12-10T09:28:58;14.73;;;9.60;;
11907;SDS011;6014;47.690;9.130;2022-12-10T09:31:27;20.00;;;11.80;;
11907;SDS011;6014;47.690;9.130;2022-12-10T09:33:55;19.73;;;11.13;;
11907;SDS011;6014;47.690;9.130;2022-12-10T09:36:24;18.43;;;11.10;;
11907;SDS011;6014;47.690;9.130;2022-12-10T09:39:00;18.23;;;10.83;;
11907;SDS011;6014;47.690;9.130;2022-12-10T09:41:36;16.47;;;9.93;;
11907;SDS011;6014;47.690;9.130;2022-12-10T09:44:21;17.97;;;10.20;;
11907;SDS011;6014;47.690;9.130;2022-12-10T09:47:02;16.70;;;10.83;;
11907;SDS011;6014;47.690;9.130;2022-12-10T09:49:37;21.33;;;11.33;;
11907;SDS011;6014;47.690;9.130;2022-12-10T09:52:17;17.37;;;10.67;;
11907;SDS011;6014;47.690;9.130;2022-12-10T09:54:52;19.63;;;11.90;;
11907;SDS011;6014;47.690;9.130;2022-12-10T09:57:25;18.60;;;10.97;;
11907;SDS011;6014;47.690;9.130;2022-12-10T09:59:59;21.37;;;11.37;;
11907;SDS011;6014;47.690;9.130;2022-12-10T10:02:34;21.17;;;12.03;;
11907;SDS011;6014;47.690;9.130;2022-12-10T10:05:08;23.87;;;13.13;;
11907;SDS011;6014;47.690;9.130;2022-12-10T10:07:43;19.87;;;11.90;;
11907;SDS011;6014;47.690;9.130;2022-12-10T10:10:19;21.93;;;11.97;;
11907;SDS011;6014;47.690;9.130;2022-12-10T10:12:53;22.17;;;12.00;;
11907;SDS011;6014;47.690;9.130;2022-12-10T10:15:28;21.23;;;11.97;;
11907;SDS011;6014;47.690;9.130;2022-12-10T10:18:02;18.50;;;11.37;;
11907;SDS011;6014;47.690;9.130;2022-12-10T10:20:39;16.53;;;11.00;;
11907;SDS011;6014;47.690;9.130;2022-12-10T10:23:08;18.40;;;10.70;;
11907;SDS011;6014;47.690;9.130;2022-12-10T10:25:41;18.93;;;11.20;;
11907;SDS011;6014;47.690;9.130;2022-12-10T10:28:11;20.53;;;10.80;;
11907;SDS011;6014;47.690;9.130;2022-12-10T10:30:45;17.53;;;10.20;;
11907;SDS011;6014;47.690;9.130;2022-12-10T10:33:15;21.10;;;12.17;;
11907;SDS011;6014;47.690;9.130;2022-12-10T10:35:46;20.90;;;11.10;;
11907;SDS011;6014;47.690;9.130;2022-12-10T10:38:18;21.73;;;11.10;;
11907;SDS011;6014;47.690;9.130;2022-12-10T10:40:52;18.13;;;10.40;;
11907;SDS011;6014;47.690;9.130;2022-12-10T10:43:23;18.43;;;10.47;;
11907;SDS011;6014;47.690;9.130;2022-12-10T10:45:56;18.57;;;10.57;;
11907;SDS011;6014;47.690;9.130;2022-12-10T10:48:28;18.63;;;11.23;;
11907;SDS011;6014;47.690;9.130;2022-12-10T10:51:04;14.10;;;9.43;;
11907;SDS011;6014;47.690;9.130;2022-12-10T10:53:40;22.97;;;12.67;;
11907;SDS011;6014;47.690;9.130;2022-12-10T10:56:12;22.33;;;11.80;;
11907;SDS011;6014;47.690;9.130;2022-12-10T10:58:45;19.03;;;10.67;;
11907;SDS011;6014;47.690;9.130;2022-12-10T11:01:21;17.23;;;9.87;;
11907;SDS011;6014;47.690;9.130;2022-12-10T11:03:53;17.17;;;10.83;;
11907;SDS011;6014;47.690;9.130;2022-12-10T11:06:25;20.03;;;10.87;;
11907;SDS011;6014;47.690;9.130;2022-12-10T11:08:54;22.00;;;13.20;;
11907;SDS011;6014;47.690;9.130;2022-12-10T11:11:31;25.27;;;14.67;;
11907;SDS011;6014;47.690;9.130;2022-12-10T11:14:12;21.47;;;12.30;;
11907;SDS011;6014;47.690;9.130;2022-12-10T11:16:43;21.20;;;13.30;;
11907;SDS011;6014;47.690;9.130;2022-12-10T11:19:18;16.67;;;10.37;;
11907;SDS011;6014;47.690;9.130;2022-12-10T11:21:49;18.00;;;11.30;;
11907;SDS011;6014;47.690;9.130;2022-12-10T11:24:19;19.03;;;12.17;;
11907;SDS011;6014;47.690;9.130;2022-12-10T11:26:55;16.30;;;10.37;;
11907;SDS011;6014;47.690;9.130;2022-12-10T11:29:40;18.67;;;12.10;;
11907;SDS011;6014;47.690;9.130;2022-12-10T11:32:38;17.67;;;10.27;;
11907;SDS011;6014;47.690;9.130;2022-12-10T11:35:29;15.70;;;9.73;;
11907;SDS011;6014;47.690;9.130;2022-12-10T11:38:15;17.10;;;9.83;;
11907;SDS011;6014;47.690;9.130;2022-12-10T11:40:55;21.93;;;12.33;;
11907;SDS011;6014;47.690;9.130;2022-12-10T11:46:57;16.73;;;10.03;;
11907;SDS011;6014;47.690;9.130;2022-12-10T11:49:42;14.63;;;9.60;;
11907;SDS011;6014;47.690;9.130;2022-12-10T11:52:32;14.63;;;8.63;;
11907;SDS011;6014;47.690;9.130;2022-12-10T11:55:17;22.10;;;13.70;;
11907;SDS011;6014;47.690;9.130;2022-12-10T11:58:01;23.27;;;13.00;;
11907;SDS011;6014;47.690;9.130;2022-12-10T12:00:59;18.10;;;9.77;;
11907;SDS011;6014;47.690;9.130;2022-12-10T12:03:39;20.77;;;11.93;;
11907;SDS011;6014;47.690;9.130;2022-12-10T12:06:42;20.87;;;11.50;;
11907;SDS011;6014;47.690;9.130;2022-12-10T12:09:27;15.87;;;9.77;;
11907;SDS011;6014;47.690;9.130;2022-12-10T12:12:06;18.43;;;9.40;;
11907;SDS011;6014;47.690;9.130;2022-12-10T12:14:48;17.57;;;9.63;;
11907;SDS011;6014;47.690;9.130;2022-12-10T12:17:27;17.10;;;9.07;;
11907;SDS011;6014;47.690;9.130;2022-12-10T12:20:00;17.13;;;9.10;;
11907;SDS011;6014;47.690;9.130;2022-12-10T12:22:34;16.50;;;8.77;;
11907;SDS011;6014;47.690;9.130;2022-12-10T12:25:06;17.27;;;9.50;;
11907;SDS011;6014;47.690;9.130;2022-12-10T12:27:55;16.27;;;9.47;;
11907;SDS011;6014;47.690;9.130;2022-12-10T12:30:28;12.93;;;8.67;;
11907;SDS011;6014;47.690;9.130;2022-12-10T12:33:03;17.03;;;9.43;;
11907;SDS011;6014;47.690;9.130;2022-12-10T12:35:38;15.37;;;9.70;;
11907;SDS011;6014;47.690;9.130;2022-12-10T12:41:01;15.33;;;8.17;;
11907;SDS011;6014;47.690;9.130;2022-12-10T12:43:37;15.97;;;9.17;;
11907;SDS011;6014;47.690;9.130;2022-12-10T12:46:15;15.77;;;8.63;;
11907;SDS011;6014;47.690;9.130;2022-12-10T12:48:52;14.83;;;8.97;;
11907;SDS011;6014;47.690;9.130;2022-12-10T12:51:26;14.47;;;8.87;;
11907;SDS011;6014;47.690;9.130;2022-12-10T12:54:00;13.53;;;7.43;;
11907;SDS011;6014;47.690;9.130;2022-12-10T12:56:33;13.83;;;8.60;;
11907;SDS011;6014;47.690;9.130;2022-12-10T12:59:34;11.70;;;8.13;;
11907;SDS011;6014;47.690;9.130;2022-12-10T13:02:17;16.20;;;8.50;;
11907;SDS011;6014;47.690;9.130;2022-12-10T13:05:01;13.33;;;8.83;;
11907;SDS011;6014;47.690;9.130;2022-12-10T13:07:34;41.93;;;17.47;;
11907;SDS011;6014;47.690;9.130;2022-12-10T13:10:17;14.70;;;8.00;;
11907;SDS011;6014;47.690;9.130;2022-12-10T13:13:05;12.63;;;7.40;;
11907;SDS011;6014;47.690;9.130;2022-12-10T13:15:50;13.20;;;7.00;;
11907;SDS011;6014;47.690;9.130;2022-12-10T13:18:22;13.43;;;7.63;;
11907;SDS011;6014;47.690;9.130;2022-12-10T13:24:07;11.60;;;6.57;;
11907;SDS011;6014;47.690;9.130;2022-12-10T13:26:41;11.23;;;7.47;;
11907;SDS011;6014;47.690;9.130;2022-12-10T13:29:42;12.37;;;7.00;;
11907;SDS011;6014;47.690;9.130;2022-12-10T13:32:15;12.00;;;7.10;;
11907;SDS011;6014;47.690;9.130;2022-12-10T13:34:46;14.50;;;8.00;;
11907;SDS011;6014;47.690;9.130;2022-12-10T13:37:54;13.63;;;7.23;;
11907;SDS011;6014;47.690;9.130;2022-12-10T13:40:39;18.47;;;9.47;;
11907;SDS011;6014;47.690;9.130;2022-12-10T13:43:28;14.80;;;8.37;;
11907;SDS011;6014;47.690;9.130;2022-12-10T13:46:26;12.30;;;7.43;;
11907;SDS011;6014;47.690;9.130;2022-12-10T13:49:00;11.63;;;6.97;;
11907;SDS011;6014;47.690;9.130;2022-12-10T13:51:44;12.73;;;7.27;;
11907;SDS011;6014;47.690;9.130;2022-12-10T13:57:59;13.90;;;7.70;;
11907;SDS011;6014;47.690;9.130;2022-12-10T14:00:48;14.07;;;7.50;;
11907;SDS011;6014;47.690;9.130;2022-12-10T14:06:24;12.90;;;7.30;;
11907;SDS011;6014;47.690;9.130;2022-12-10T14:08:55;15.53;;;8.23;;
11907;SDS011;6014;47.690;9.130;2022-12-10T14:11:30;13.17;;;8.57;;
11907;SDS011;6014;47.690;9.130;2022-12-10T14:14:05;13.40;;;8.20;;
11907;SDS011;6014;47.690;9.130;2022-12-10T14:16:39;12.67;;;8.37;;
11907;SDS011;6014;47.690;9.130;2022-12-10T14:19:11;17.20;;;8.93;;
11907;SDS011;6014;47.690;9.130;2022-12-10T14:21:43;15.70;;;9.17;;
11907;SDS011;6014;47.690;9.130;2022-12-10T14:24:26;14.40;;;8.03;;
11907;SDS011;6014;47.690;9.130;2022-12-10T14:27:03;15.23;;;7.77;;
11907;SDS011;6014;47.690;9.130;2022-12-10T14:29:45;12.53;;;6.47;;
11907;SDS011;6014;47.690;9.130;2022-12-10T14:32:16;11.47;;;6.43;;
11907;SDS011;6014;47.690;9.130;2022-12-10T14:34:48;15.03;;;7.03;;
11907;SDS011;6014;47.690;9.130;2022-12-10T14:37:21;12.63;;;7.13;;
11907;SDS011;6014;47.690;9.130;2022-12-10T14:39:54;11.00;;;7.63;;
11907;SDS011;6014;47.690;9.130;2022-12-10T14:42:24;12.33;;;6.80;;
11907;SDS011;6014;47.690;9.130;2022-12-10T14:44:56;11.13;;;7.03;;
11907;SDS011;6014;47.690;9.130;2022-12-10T14:47:26;12.63;;;6.73;;
11907;SDS011;6014;47.690;9.130;2022-12-10T14:50:00;9.50;;;5.53;;
11907;SDS011;6014;47.690;9.130;2022-12-10T14:52:31;11.03;;;5.40;;
11907;SDS011;6014;47.690;9.130;2022-12-10T14:55:02;8.07;;;4.63;;
11907;SDS011;6014;47.690;9.130;2022-12-10T14:57:34;8.90;;;4.93;;
11907;SDS011;6014;47.690;9.130;2022-12-10T15:00:10;7.97;;;4.37;;
11907;SDS011;6014;47.690;9.130;2022-12-10T15:02:43;8.10;;;4.50;;
11907;SDS011;6014;47.690;9.130;2022-12-10T15:05:15;8.90;;;4.83;;
11907;SDS011;6014;47.690;9.130;2022-12-10T15:07:48;10.20;;;5.33;;
11907;SDS011;6014;47.690;9.130;2022-12-10T15:10:23;9.03;;;4.83;;
11907;SDS011;6014;47.690;9.130;2022-12-10T15:12:56;7.87;;;4.80;;
11907;SDS011;6014;47.690;9.130;2022-12-10T15:15:28;9.93;;;5.53;;
11907;SDS011;6014;47.690;9.130;2022-12-10T15:18:03;8.57;;;4.57;;
11907;SDS011;6014;47.690;9.130;2022-12-10T15:20:44;8.43;;;4.50;;
11907;SDS011;6014;47.690;9.130;2022-12-10T15:23:17;9.10;;;6.03;;
11907;SDS011;6014;47.690;9.130;2022-12-10T15:25:52;10.33;;;5.93;;
11907;SDS011;6014;47.690;9.130;2022-12-10T15:28:30;9.83;;;5.37;;
11907;SDS011;6014;47.690;9.130;2022-12-10T15:31:14;10.77;;;5.83;;
11907;SDS011;6014;47.690;9.130;2022-12-10T15:33:50;11.20;;;5.37;;
11907;SDS011;6014;47.690;9.130;2022-12-10T15:36:24;11.37;;;6.07;;
11907;SDS011;6014;47.690;9.130;2022-12-10T15:39:02;11.63;;;5.67;;
11907;SDS011;6014;47.690;9.130;2022-12-10T15:41:40;9.60;;;5.73;;